Etusivu
METAR-TAF:

METAR-TAF

Lentoasemat :

Værøy, Norja

Heliport

Leveyspiiri: 67-39-16N, Pituuspiiri: 12-43-37E, korkeus merenpinnasta: 5 m

Tämänhetkinen sää

Tämä raportti tehtiin 15 tuntia ja 15 minuuttia sitten, kello 13.50 UTC
Tuuli 5 kn lännestä, vaihdellen lounaan ja luoteen välillä
Lämpötila 7°C
Kosteus 87%
Ilmanpaine 1016 hPa
Näkyvyys 10 km tai enemmän
Muutamia pilviä 800 ft:n korkeudessa
Hajanaisia pilviä 2600 ft:n korkeudessa
Hajonneita pilviä 3900 ft:n korkeudessa
heikkoa tihkusadetta

METAR: ENVR 221350Z 26005KT 230V320 9999 -DZ FEW008 SCT026 BKN039 07/05 Q1016

Aika: 07:05 (05:05 UTC)


TAF: puuttuu

Säähavainnot ja -ennusteet yli 4000 lentoasemalta (METAR- ja TAF-raportit).

Käytössä olevat sääasemat on merkitty karttaan keltaisilla ja punaisilla pisteillä.

Aseta hiiri pisteen päälle nähdäksesi sääaseman nimen.

Klikkaa sitten nähdäksesi säähavainnot ja -ennusteet.

Kartan vaihtaminen: klikkaa mustalla rastilla varustettuja vihreitä pisteitä, niin voit zoomata sisään; viivalla varustettua vihreää pistettä, niin voit zoomata ulos tai vihreitä nuolia, niin pääset viereisille kartoille.


METAR-TAF: